Terminal Aerodrome Forecast
Issued by NWS

Home | Current Version | Previous Version | Text Only | Print | Product List | Glossary On
Versions: 1 2 3 4 5 6 7 8 9 10 11 12 13 14 15 16
000
FTUS42 KFFC 210800 AAA
TAFPDK
TAF AMD
KPDK 210800Z 2108/2206 00000KT 6SM BR SKC
      TEMPO 2108/2112 3SM BR
     FM211400 30006KT P6SM FEW250
     FM211700 32009G14KT P6SM FEW250
     FM220000 33006KT P6SM SKC=

USA.gov is the U.S. government's official web portal to all federal, state and local government web resources and services.